RYR5573 LFML-LSGG
Flight info
| Callsign | RYR5573 |
|---|---|
| Flight time | N/A |
| Altitude | 28000 |
| Route | LFML MTL B16 BELUS LSGG |
| Aircraft | B738/M-V/N |
Departure
| Time | N/A |
|---|---|
| Airport | Marseille Provence Airport (LFML) |
Arrival
| Time | 2026-05-07 14:49 |
|---|---|
| Airport | Geneva International Airport (LSGG) |
| Time | Latitude | Longitude | Altitude | Speed | Heading |
|---|---|---|---|---|---|
| 2026-05-07 14:08 | 43.87883 | 5.16441 | 11236 ft | 270 kts | 12° |
| 2026-05-07 14:08 | 43.89118 | 5.16965 | 11530 ft | 270 kts | 12° |
| 2026-05-07 14:09 | 43.90568 | 5.17584 | 11873 ft | 271 kts | 12° |
| 2026-05-07 14:09 | 43.92356 | 5.18344 | 12295 ft | 272 kts | 10° |
| 2026-05-07 14:09 | 43.94180 | 5.19006 | 12721 ft | 273 kts | 8° |
| 2026-05-07 14:09 | 43.96053 | 5.19658 | 13155 ft | 278 kts | 8° |
| 2026-05-07 14:10 | 43.97949 | 5.20324 | 13521 ft | 285 kts | 8° |
| 2026-05-07 14:10 | 43.99882 | 5.21003 | 13871 ft | 291 kts | 8° |
| 2026-05-07 14:10 | 44.01876 | 5.21702 | 14224 ft | 297 kts | 8° |
| 2026-05-07 14:10 | 44.03875 | 5.22404 | 14571 ft | 302 kts | 8° |
| 2026-05-07 14:11 | 44.05947 | 5.23132 | 14926 ft | 307 kts | 8° |
| 2026-05-07 14:11 | 44.08025 | 5.23863 | 15276 ft | 311 kts | 8° |
| 2026-05-07 14:11 | 44.10131 | 5.24606 | 15626 ft | 315 kts | 8° |
| 2026-05-07 14:11 | 44.12241 | 5.25352 | 15974 ft | 318 kts | 8° |
| 2026-05-07 14:12 | 44.14393 | 5.26115 | 16325 ft | 321 kts | 8° |
| 2026-05-07 14:12 | 44.16548 | 5.26883 | 16673 ft | 323 kts | 8° |
| 2026-05-07 14:12 | 44.18747 | 5.27669 | 17026 ft | 326 kts | 8° |
| 2026-05-07 14:12 | 44.20937 | 5.28456 | 17375 ft | 327 kts | 8° |
| 2026-05-07 14:13 | 44.23150 | 5.29256 | 17727 ft | 329 kts | 8° |
| 2026-05-07 14:13 | 44.25365 | 5.30059 | 18039 ft | 331 kts | 8° |
| 2026-05-07 14:13 | 44.27601 | 5.30872 | 18235 ft | 337 kts | 8° |
| 2026-05-07 14:13 | 44.29869 | 5.31693 | 18436 ft | 341 kts | 8° |
| 2026-05-07 14:14 | 44.32181 | 5.32529 | 18638 ft | 346 kts | 8° |
| 2026-05-07 14:14 | 44.34509 | 5.33371 | 18837 ft | 349 kts | 8° |
| 2026-05-07 14:14 | 44.36882 | 5.34229 | 19039 ft | 353 kts | 8° |
| 2026-05-07 14:14 | 44.39253 | 5.35088 | 19238 ft | 356 kts | 8° |
| 2026-05-07 14:15 | 44.41634 | 5.35950 | 19437 ft | 358 kts | 8° |
| 2026-05-07 14:15 | 44.44054 | 5.36828 | 19637 ft | 361 kts | 8° |
| 2026-05-07 14:15 | 44.46495 | 5.37713 | 19838 ft | 363 kts | 8° |
| 2026-05-07 14:15 | 44.48939 | 5.38601 | 20038 ft | 364 kts | 8° |
| 2026-05-07 14:16 | 44.51378 | 5.39489 | 20237 ft | 366 kts | 8° |
| 2026-05-07 14:16 | 44.53197 | 5.40154 | 20385 ft | 367 kts | 8° |
| 2026-05-07 14:16 | 44.54517 | 5.40637 | 20492 ft | 367 kts | 8° |
| 2026-05-07 14:17 | 44.62054 | 5.43408 | 21101 ft | 370 kts | 8° |
| 2026-05-07 14:17 | 44.64151 | 5.44184 | 21269 ft | 371 kts | 8° |
| 2026-05-07 14:18 | 44.68598 | 5.45837 | 21626 ft | 371 kts | 8° |
| 2026-05-07 14:18 | 44.70649 | 5.46603 | 21790 ft | 372 kts | 8° |
| 2026-05-07 14:19 | 44.71116 | 5.46778 | 21828 ft | 372 kts | 8° |
| 2026-05-07 14:20 | 44.75863 | 5.48560 | 22208 ft | 372 kts | 8° |
| 2026-05-07 14:21 | 44.78410 | 5.49523 | 22412 ft | 372 kts | 8° |
| 2026-05-07 14:21 | 44.80889 | 5.50461 | 22611 ft | 372 kts | 8° |
| 2026-05-07 14:21 | 44.83384 | 5.51410 | 22811 ft | 372 kts | 8° |
| 2026-05-07 14:21 | 44.85877 | 5.52365 | 23012 ft | 371 kts | 8° |
| 2026-05-07 14:22 | 44.88335 | 5.53308 | 23209 ft | 371 kts | 8° |
| 2026-05-07 14:22 | 44.90826 | 5.54268 | 23410 ft | 371 kts | 8° |
| 2026-05-07 14:22 | 44.93306 | 5.55229 | 23610 ft | 370 kts | 8° |
| 2026-05-07 14:22 | 44.95774 | 5.56189 | 23809 ft | 370 kts | 8° |
| 2026-05-07 14:23 | 44.98266 | 5.57161 | 24009 ft | 370 kts | 8° |
| 2026-05-07 14:23 | 45.00744 | 5.58127 | 24208 ft | 369 kts | 8° |
| 2026-05-07 14:23 | 45.03186 | 5.59073 | 24405 ft | 369 kts | 8° |
| 2026-05-07 14:23 | 45.05671 | 5.60027 | 24605 ft | 370 kts | 8° |
| 2026-05-07 14:24 | 45.08150 | 5.60965 | 24805 ft | 370 kts | 8° |
| 2026-05-07 14:24 | 45.10639 | 5.61890 | 25006 ft | 370 kts | 8° |
| 2026-05-07 14:24 | 45.13120 | 5.62794 | 25205 ft | 370 kts | 8° |
| 2026-05-07 14:24 | 45.15637 | 5.63697 | 25217 ft | 377 kts | 8° |
| 2026-05-07 14:25 | 45.18163 | 5.64598 | 25160 ft | 384 kts | 8° |
| 2026-05-07 14:25 | 45.20795 | 5.65529 | 24986 ft | 394 kts | 9° |
| 2026-05-07 14:25 | 45.23466 | 5.66464 | 24813 ft | 403 kts | 9° |
| 2026-05-07 14:25 | 45.26219 | 5.67419 | 24637 ft | 411 kts | 9° |
| 2026-05-07 14:26 | 45.28990 | 5.68373 | 24462 ft | 415 kts | 9° |
| 2026-05-07 14:26 | 45.31773 | 5.69329 | 24286 ft | 414 kts | 9° |
| 2026-05-07 14:26 | 45.34562 | 5.70287 | 24109 ft | 413 kts | 9° |
| 2026-05-07 14:26 | 45.37339 | 5.71240 | 23934 ft | 411 kts | 9° |
| 2026-05-07 14:27 | 45.40107 | 5.72191 | 23717 ft | 411 kts | 9° |
| 2026-05-07 14:27 | 45.42893 | 5.73145 | 23386 ft | 410 kts | 9° |
| 2026-05-07 14:27 | 45.45643 | 5.74085 | 23059 ft | 407 kts | 9° |
| 2026-05-07 14:27 | 45.48357 | 5.75013 | 22735 ft | 404 kts | 9° |
| 2026-05-07 14:28 | 45.51062 | 5.75936 | 22411 ft | 402 kts | 9° |
| 2026-05-07 14:28 | 45.53785 | 5.76864 | 22083 ft | 400 kts | 9° |
| 2026-05-07 14:28 | 45.56491 | 5.77783 | 21756 ft | 398 kts | 9° |
| 2026-05-07 14:28 | 45.59147 | 5.78685 | 21434 ft | 396 kts | 9° |
| 2026-05-07 14:29 | 45.61823 | 5.79591 | 21107 ft | 395 kts | 9° |
| 2026-05-07 14:29 | 45.64468 | 5.80485 | 20783 ft | 393 kts | 9° |
| 2026-05-07 14:29 | 45.67125 | 5.81381 | 20438 ft | 391 kts | 9° |
| 2026-05-07 14:29 | 45.69745 | 5.82263 | 20064 ft | 389 kts | 9° |
| 2026-05-07 14:30 | 45.72378 | 5.83147 | 19686 ft | 387 kts | 9° |
| 2026-05-07 14:30 | 45.74953 | 5.84009 | 19315 ft | 384 kts | 9° |
| 2026-05-07 14:30 | 45.77558 | 5.84879 | 18937 ft | 382 kts | 9° |
| 2026-05-07 14:30 | 45.80111 | 5.85730 | 18566 ft | 380 kts | 9° |
| 2026-05-07 14:31 | 45.82670 | 5.86625 | 18187 ft | 380 kts | 13° |
| 2026-05-07 14:31 | 45.85115 | 5.88080 | 17814 ft | 382 kts | 22° |
| 2026-05-07 14:31 | 45.87470 | 5.89750 | 17433 ft | 371 kts | 22° |
| 2026-05-07 14:31 | 45.89751 | 5.91352 | 17055 ft | 361 kts | 22° |
| 2026-05-07 14:32 | 45.91954 | 5.92896 | 16682 ft | 351 kts | 22° |
| 2026-05-07 14:32 | 45.94105 | 5.94408 | 16305 ft | 342 kts | 22° |
| 2026-05-07 14:32 | 45.96188 | 5.95880 | 15920 ft | 323 kts | 22° |
| 2026-05-07 14:32 | 45.98150 | 5.97276 | 15545 ft | 308 kts | 22° |
| 2026-05-07 14:33 | 46.00026 | 5.98619 | 15169 ft | 295 kts | 22° |
| 2026-05-07 14:33 | 46.01806 | 5.99899 | 14797 ft | 284 kts | 22° |
| 2026-05-07 14:33 | 46.03606 | 6.00844 | 14416 ft | 267 kts | 2° |
| 2026-05-07 14:33 | 46.05363 | 6.00643 | 14042 ft | 248 kts | 335° |
| 2026-05-07 14:34 | 46.06765 | 5.99328 | 13667 ft | 234 kts | 313° |
| 2026-05-07 14:34 | 46.07874 | 5.97688 | 13299 ft | 228 kts | 311° |
| 2026-05-07 14:34 | 46.08953 | 5.96104 | 12955 ft | 217 kts | 312° |
| 2026-05-07 14:34 | 46.09995 | 5.94595 | 12573 ft | 207 kts | 316° |
| 2026-05-07 14:35 | 46.11275 | 5.93706 | 12183 ft | 212 kts | 347° |
| 2026-05-07 14:35 | 46.12741 | 5.94017 | 11823 ft | 221 kts | 21° |
| 2026-05-07 14:35 | 46.13895 | 5.95364 | 11452 ft | 212 kts | 43° |
| 2026-05-07 14:35 | 46.14781 | 5.96959 | 11061 ft | 203 kts | 54° |
| 2026-05-07 14:36 | 46.15506 | 5.98650 | 10667 ft | 194 kts | 62° |
| 2026-05-07 14:36 | 46.15691 | 6.00493 | 10283 ft | 190 kts | 102° |
| 2026-05-07 14:36 | 46.15081 | 6.02131 | 9925 ft | 186 kts | 133° |
| 2026-05-07 14:36 | 46.14228 | 6.03496 | 9630 ft | 185 kts | 133° |
| 2026-05-07 14:37 | 46.13382 | 6.04885 | 9250 ft | 186 kts | 132° |
| 2026-05-07 14:37 | 46.11672 | 6.07631 | 8487 ft | 183 kts | 133° |
| 2026-05-07 14:37 | 46.10817 | 6.08986 | 8105 ft | 182 kts | 133° |
| 2026-05-07 14:38 | 46.09977 | 6.10323 | 7727 ft | 180 kts | 133° |
| 2026-05-07 14:38 | 46.09139 | 6.11637 | 7352 ft | 179 kts | 133° |
| 2026-05-07 14:38 | 46.08315 | 6.12975 | 6972 ft | 176 kts | 133° |
| 2026-05-07 14:38 | 46.07518 | 6.14282 | 6598 ft | 176 kts | 132° |
| 2026-05-07 14:39 | 46.06556 | 6.15301 | 6198 ft | 168 kts | 166° |
| 2026-05-07 14:39 | 46.05459 | 6.15195 | 5814 ft | 164 kts | 211° |
| 2026-05-07 14:39 | 46.04537 | 6.14244 | 5485 ft | 162 kts | 221° |
| 2026-05-07 14:39 | 46.03640 | 6.13272 | 5094 ft | 161 kts | 221° |
| 2026-05-07 14:40 | 46.02761 | 6.12317 | 4712 ft | 154 kts | 221° |
| 2026-05-07 14:40 | 46.01922 | 6.11395 | 4334 ft | 158 kts | 221° |
| 2026-05-07 14:40 | 46.01037 | 6.10424 | 3966 ft | 158 kts | 221° |
| 2026-05-07 14:40 | 46.00197 | 6.09416 | 3591 ft | 155 kts | 231° |
| 2026-05-07 14:41 | 45.99863 | 6.08002 | 3186 ft | 151 kts | 279° |
| 2026-05-07 14:41 | 46.00191 | 6.06646 | 3125 ft | 145 kts | 295° |
| 2026-05-07 14:41 | 46.00798 | 6.05487 | 3115 ft | 146 kts | 313° |
| 2026-05-07 14:41 | 46.01464 | 6.04386 | 3191 ft | 146 kts | 313° |
| 2026-05-07 14:42 | 46.02130 | 6.03267 | 3266 ft | 146 kts | 311° |
| 2026-05-07 14:42 | 46.02808 | 6.02184 | 3337 ft | 147 kts | 311° |
| 2026-05-07 14:42 | 46.03447 | 6.01253 | 3402 ft | 147 kts | 312° |
| 2026-05-07 14:42 | 46.04171 | 6.00117 | 3477 ft | 145 kts | 311° |
| 2026-05-07 14:43 | 46.04849 | 5.99008 | 3495 ft | 147 kts | 312° |
| 2026-05-07 14:43 | 46.05526 | 5.97914 | 3475 ft | 147 kts | 312° |
| 2026-05-07 14:43 | 46.06217 | 5.96814 | 3435 ft | 147 kts | 311° |
| 2026-05-07 14:43 | 46.06917 | 5.95739 | 3355 ft | 148 kts | 317° |
| 2026-05-07 14:44 | 46.07851 | 5.95230 | 3216 ft | 150 kts | 0° |
| 2026-05-07 14:44 | 46.08876 | 5.95606 | 3134 ft | 154 kts | 14° |
| 2026-05-07 14:44 | 46.09917 | 5.96041 | 3098 ft | 155 kts | 13° |
| 2026-05-07 14:44 | 46.10920 | 5.96422 | 3088 ft | 148 kts | 12° |
| 2026-05-07 14:45 | 46.11918 | 5.96819 | 3091 ft | 151 kts | 13° |
| 2026-05-07 14:45 | 46.12925 | 5.97232 | 3096 ft | 151 kts | 13° |
| 2026-05-07 14:45 | 46.13926 | 5.97634 | 3087 ft | 152 kts | 13° |
| 2026-05-07 14:45 | 46.14904 | 5.98167 | 3084 ft | 150 kts | 28° |
| 2026-05-07 14:46 | 46.15712 | 5.99136 | 3096 ft | 152 kts | 45° |
| 2026-05-07 14:46 | 46.16406 | 6.00270 | 3093 ft | 150 kts | 45° |
| 2026-05-07 14:46 | 46.17102 | 6.01419 | 3051 ft | 155 kts | 46° |
| 2026-05-07 14:46 | 46.17800 | 6.02557 | 2869 ft | 147 kts | 45° |
| 2026-05-07 14:47 | 46.18518 | 6.03557 | 2624 ft | 141 kts | 38° |
| 2026-05-07 14:47 | 46.19243 | 6.04440 | 2433 ft | 133 kts | 37° |
| 2026-05-07 14:47 | 46.19938 | 6.05342 | 2348 ft | 132 kts | 41° |
| 2026-05-07 14:47 | 46.20618 | 6.06238 | 2128 ft | 136 kts | 42° |
| 2026-05-07 14:48 | 46.21288 | 6.07198 | 2096 ft | 137 kts | 44° |
| 2026-05-07 14:48 | 46.21997 | 6.08216 | 1789 ft | 146 kts | 43° |
| 2026-05-07 14:48 | 46.22684 | 6.09249 | 1497 ft | 142 kts | 43° |
| 2026-05-07 14:48 | 46.23324 | 6.10173 | 1420 ft | 111 kts | 44° |
| 2026-05-07 14:49 | 46.23676 | 6.10701 | 1419 ft | 46 kts | 47° |
| 2026-05-07 14:49 | 46.23835 | 6.10967 | 1419 ft | 14 kts | 45° |
| 2026-05-07 14:49 | 46.23846 | 6.10992 | 1419 ft | 5 kts | 64° |
| 2026-05-07 14:49 | 46.23817 | 6.11062 | 1419 ft | 14 kts | 162° |
| 2026-05-07 14:50 | 46.23731 | 6.11085 | 1419 ft | 13 kts | 186° |
| 2026-05-07 14:50 | 46.23653 | 6.11005 | 1419 ft | 12 kts | 225° |
| 2026-05-07 14:50 | 46.23602 | 6.10929 | 1419 ft | 8 kts | 225° |
| 2026-05-07 14:50 | 46.23567 | 6.10877 | 1419 ft | 5 kts | 225° |
| 2026-05-07 14:51 | 46.23541 | 6.10840 | 1419 ft | 5 kts | 225° |
| 2026-05-07 14:51 | 46.23508 | 6.10791 | 1419 ft | 8 kts | 225° |
| 2026-05-07 14:51 | 46.23454 | 6.10711 | 1419 ft | 14 kts | 225° |
| 2026-05-07 14:51 | 46.23368 | 6.10597 | 1419 ft | 15 kts | 225° |
| 2026-05-07 14:52 | 46.23290 | 6.10481 | 1419 ft | 12 kts | 225° |
| 2026-05-07 14:52 | 46.23264 | 6.10456 | 1419 ft | 0 kts | 155° |
| 2026-05-07 14:52 | 46.23260 | 6.10457 | 1419 ft | 0 kts | 179° |
| 2026-05-07 14:52 | 46.23243 | 6.10458 | 1419 ft | 2 kts | 156° |
| 2026-05-07 14:53 | 46.23232 | 6.10473 | 1419 ft | 0 kts | 134° |
| 2026-05-07 14:53 | 46.23232 | 6.10474 | 1419 ft | 0 kts | 117° |
| 2026-05-07 14:54 | 46.23229 | 6.10489 | 1419 ft | 2 kts | 105° |
| 2026-05-07 14:54 | 46.23223 | 6.10524 | 1419 ft | 4 kts | 99° |
| 2026-05-07 14:54 | 46.23222 | 6.10536 | 1419 ft | 0 kts | 92° |
| 2026-05-07 14:55 | 46.23222 | 6.10542 | 1419 ft | 1 kts | 90° |
| 2026-05-07 14:55 | 46.23222 | 6.10575 | 1419 ft | 4 kts | 90° |
| 2026-05-07 14:55 | 46.23223 | 6.10616 | 1419 ft | 1 kts | 76° |
| 2026-05-07 14:56 | 46.23228 | 6.10618 | 1419 ft | 0 kts | 352° |
| 2026-05-07 14:56 | 46.23230 | 6.10613 | 1419 ft | 0 kts | 287° |
| 2026-05-07 14:56 | 46.23228 | 6.10607 | 1419 ft | 1 kts | 247° |
| 2026-05-07 14:56 | 46.23223 | 6.10584 | 1419 ft | 3 kts | 261° |
| 2026-05-07 14:57 | 46.23222 | 6.10544 | 1419 ft | 4 kts | 274° |
| 2026-05-07 14:57 | 46.23223 | 6.10505 | 1419 ft | 2 kts | 271° |
| 2026-05-07 14:57 | 46.23223 | 6.10491 | 1419 ft | 0 kts | 271° |